sensor_id;sensor_type;location;lat;lon;timestamp;temperature;humidity
20744;DHT22;56303;52.160;-0.428;2024-02-21T00:00:55;11.20;99.90
20744;DHT22;56303;52.160;-0.428;2024-02-21T00:03:22;11.10;99.90
20744;DHT22;56303;52.160;-0.428;2024-02-21T00:05:48;11.10;99.90
20744;DHT22;56303;52.160;-0.428;2024-02-21T00:08:16;11.10;99.90
20744;DHT22;56303;52.160;-0.428;2024-02-21T00:10:43;11.20;99.90
20744;DHT22;56303;52.160;-0.428;2024-02-21T00:13:10;11.20;99.90
20744;DHT22;56303;52.160;-0.428;2024-02-21T00:15:37;11.10;99.90
20744;DHT22;56303;52.160;-0.428;2024-02-21T00:18:04;11.00;99.90
20744;DHT22;56303;52.160;-0.428;2024-02-21T00:20:32;11.30;99.90
20744;DHT22;56303;52.160;-0.428;2024-02-21T00:22:58;11.30;99.90
20744;DHT22;56303;52.160;-0.428;2024-02-21T00:25:25;11.20;99.90
20744;DHT22;56303;52.160;-0.428;2024-02-21T00:27:52;11.20;99.90
20744;DHT22;56303;52.160;-0.428;2024-02-21T00:30:20;11.30;99.90
20744;DHT22;56303;52.160;-0.428;2024-02-21T00:32:47;11.30;99.90
20744;DHT22;56303;52.160;-0.428;2024-02-21T00:35:14;11.20;99.90
20744;DHT22;56303;52.160;-0.428;2024-02-21T00:37:42;11.10;99.90
20744;DHT22;56303;52.160;-0.428;2024-02-21T00:40:09;11.10;99.90
20744;DHT22;56303;52.160;-0.428;2024-02-21T00:42:36;11.10;99.90
20744;DHT22;56303;52.160;-0.428;2024-02-21T00:45:04;11.10;99.90
20744;DHT22;56303;52.160;-0.428;2024-02-21T00:47:31;11.30;99.90
20744;DHT22;56303;52.160;-0.428;2024-02-21T00:49:58;11.20;99.90
20744;DHT22;56303;52.160;-0.428;2024-02-21T00:52:25;11.40;99.90
20744;DHT22;56303;52.160;-0.428;2024-02-21T00:54:51;11.30;99.90
20744;DHT22;56303;52.160;-0.428;2024-02-21T00:57:20;11.10;99.90
20744;DHT22;56303;52.160;-0.428;2024-02-21T00:59:47;11.10;99.90
20744;DHT22;56303;52.160;-0.428;2024-02-21T01:02:14;11.10;99.90
20744;DHT22;56303;52.160;-0.428;2024-02-21T01:04:42;10.90;99.90
20744;DHT22;56303;52.160;-0.428;2024-02-21T01:07:09;11.10;99.90
20744;DHT22;56303;52.160;-0.428;2024-02-21T01:09:36;11.10;99.90
20744;DHT22;56303;52.160;-0.428;2024-02-21T01:12:03;11.10;99.90
20744;DHT22;56303;52.160;-0.428;2024-02-21T01:14:30;11.20;99.90
20744;DHT22;56303;52.160;-0.428;2024-02-21T01:16:57;11.20;99.90
20744;DHT22;56303;52.160;-0.428;2024-02-21T01:19:24;11.40;99.90
20744;DHT22;56303;52.160;-0.428;2024-02-21T01:21:51;11.30;99.90
20744;DHT22;56303;52.160;-0.428;2024-02-21T01:24:18;11.30;99.90
20744;DHT22;56303;52.160;-0.428;2024-02-21T01:26:44;11.30;99.90
20744;DHT22;56303;52.160;-0.428;2024-02-21T01:29:11;11.30;99.90
20744;DHT22;56303;52.160;-0.428;2024-02-21T01:31:38;11.10;99.90
20744;DHT22;56303;52.160;-0.428;2024-02-21T01:34:05;11.10;99.90
20744;DHT22;56303;52.160;-0.428;2024-02-21T01:36:32;11.20;99.90
20744;DHT22;56303;52.160;-0.428;2024-02-21T01:38:59;11.20;99.90
20744;DHT22;56303;52.160;-0.428;2024-02-21T01:41:26;11.30;99.90
20744;DHT22;56303;52.160;-0.428;2024-02-21T01:43:53;11.40;99.90
20744;DHT22;56303;52.160;-0.428;2024-02-21T01:46:20;11.50;99.90
20744;DHT22;56303;52.160;-0.428;2024-02-21T01:48:47;11.50;99.90
20744;DHT22;56303;52.160;-0.428;2024-02-21T01:51:15;11.40;99.90
20744;DHT22;56303;52.160;-0.428;2024-02-21T01:53:45;11.10;99.90
20744;DHT22;56303;52.160;-0.428;2024-02-21T01:56:13;10.90;99.90
20744;DHT22;56303;52.160;-0.428;2024-02-21T01:58:42;10.90;99.90
20744;DHT22;56303;52.160;-0.428;2024-02-21T02:01:10;11.00;99.90
20744;DHT22;56303;52.160;-0.428;2024-02-21T02:03:37;11.10;99.90
20744;DHT22;56303;52.160;-0.428;2024-02-21T02:06:07;11.10;99.90
20744;DHT22;56303;52.160;-0.428;2024-02-21T02:08:34;10.90;99.90
20744;DHT22;56303;52.160;-0.428;2024-02-21T02:11:01;10.90;99.90
20744;DHT22;56303;52.160;-0.428;2024-02-21T02:13:28;11.10;99.90
20744;DHT22;56303;52.160;-0.428;2024-02-21T02:15:55;11.20;99.90
20744;DHT22;56303;52.160;-0.428;2024-02-21T02:18:22;11.20;99.90
20744;DHT22;56303;52.160;-0.428;2024-02-21T02:20:49;11.00;99.90
20744;DHT22;56303;52.160;-0.428;2024-02-21T02:23:30;11.10;99.90
20744;DHT22;56303;52.160;-0.428;2024-02-21T02:26:00;11.20;99.90
20744;DHT22;56303;52.160;-0.428;2024-02-21T02:28:30;11.10;99.90
20744;DHT22;56303;52.160;-0.428;2024-02-21T02:30:57;11.20;99.90
20744;DHT22;56303;52.160;-0.428;2024-02-21T02:33:24;11.10;99.90
20744;DHT22;56303;52.160;-0.428;2024-02-21T02:35:51;11.00;99.90
20744;DHT22;56303;52.160;-0.428;2024-02-21T02:38:18;10.90;99.90
20744;DHT22;56303;52.160;-0.428;2024-02-21T02:40:45;10.90;99.90
20744;DHT22;56303;52.160;-0.428;2024-02-21T02:43:12;11.00;99.90
20744;DHT22;56303;52.160;-0.428;2024-02-21T02:45:39;11.10;99.90
20744;DHT22;56303;52.160;-0.428;2024-02-21T02:48:06;11.30;99.90
20744;DHT22;56303;52.160;-0.428;2024-02-21T02:50:33;11.30;99.90
20744;DHT22;56303;52.160;-0.428;2024-02-21T02:53:00;11.00;99.90
20744;DHT22;56303;52.160;-0.428;2024-02-21T02:55:27;11.20;99.90
20744;DHT22;56303;52.160;-0.428;2024-02-21T02:57:54;11.20;99.90
20744;DHT22;56303;52.160;-0.428;2024-02-21T03:00:22;11.40;99.90
20744;DHT22;56303;52.160;-0.428;2024-02-21T03:02:49;11.30;99.90
20744;DHT22;56303;52.160;-0.428;2024-02-21T03:05:21;11.20;99.90
20744;DHT22;56303;52.160;-0.428;2024-02-21T03:07:48;11.20;99.90
20744;DHT22;56303;52.160;-0.428;2024-02-21T03:10:16;11.10;99.90
20744;DHT22;56303;52.160;-0.428;2024-02-21T03:12:44;11.30;99.90
20744;DHT22;56303;52.160;-0.428;2024-02-21T03:15:12;11.10;99.90
20744;DHT22;56303;52.160;-0.428;2024-02-21T03:17:40;11.00;99.90
20744;DHT22;56303;52.160;-0.428;2024-02-21T03:20:07;11.10;99.90
20744;DHT22;56303;52.160;-0.428;2024-02-21T03:22:40;11.10;99.90
20744;DHT22;56303;52.160;-0.428;2024-02-21T03:25:08;11.20;99.90
20744;DHT22;56303;52.160;-0.428;2024-02-21T03:27:36;11.30;99.90
20744;DHT22;56303;52.160;-0.428;2024-02-21T03:30:03;11.40;99.90
20744;DHT22;56303;52.160;-0.428;2024-02-21T03:32:31;11.30;99.90
20744;DHT22;56303;52.160;-0.428;2024-02-21T03:34:58;11.20;99.90
20744;DHT22;56303;52.160;-0.428;2024-02-21T03:37:25;11.00;99.90
20744;DHT22;56303;52.160;-0.428;2024-02-21T03:39:51;11.10;99.90
20744;DHT22;56303;52.160;-0.428;2024-02-21T03:42:18;11.30;99.90
20744;DHT22;56303;52.160;-0.428;2024-02-21T03:44:45;11.00;99.90
20744;DHT22;56303;52.160;-0.428;2024-02-21T03:47:12;10.90;99.90
20744;DHT22;56303;52.160;-0.428;2024-02-21T03:49:39;10.90;99.90
20744;DHT22;56303;52.160;-0.428;2024-02-21T03:52:06;11.00;99.90
20744;DHT22;56303;52.160;-0.428;2024-02-21T03:54:33;11.00;99.90
20744;DHT22;56303;52.160;-0.428;2024-02-21T03:57:00;11.00;99.90
20744;DHT22;56303;52.160;-0.428;2024-02-21T03:59:27;10.90;99.90
20744;DHT22;56303;52.160;-0.428;2024-02-21T04:01:54;10.90;99.90
20744;DHT22;56303;52.160;-0.428;2024-02-21T04:04:21;11.00;99.90
20744;DHT22;56303;52.160;-0.428;2024-02-21T04:06:48;11.00;99.90
20744;DHT22;56303;52.160;-0.428;2024-02-21T04:09:16;11.20;99.90
20744;DHT22;56303;52.160;-0.428;2024-02-21T04:11:43;11.40;99.90
20744;DHT22;56303;52.160;-0.428;2024-02-21T04:14:10;11.10;99.90
20744;DHT22;56303;52.160;-0.428;2024-02-21T04:16:38;11.00;99.90
20744;DHT22;56303;52.160;-0.428;2024-02-21T04:19:06;11.00;99.90
20744;DHT22;56303;52.160;-0.428;2024-02-21T04:21:33;10.90;99.90
20744;DHT22;56303;52.160;-0.428;2024-02-21T04:24:00;10.80;99.90
20744;DHT22;56303;52.160;-0.428;2024-02-21T04:26:28;11.00;99.90
20744;DHT22;56303;52.160;-0.428;2024-02-21T04:28:55;11.00;99.90
20744;DHT22;56303;52.160;-0.428;2024-02-21T04:31:22;11.00;99.90
20744;DHT22;56303;52.160;-0.428;2024-02-21T04:33:49;10.70;99.90
20744;DHT22;56303;52.160;-0.428;2024-02-21T04:36:16;10.80;99.90
20744;DHT22;56303;52.160;-0.428;2024-02-21T04:38:43;10.90;99.90
20744;DHT22;56303;52.160;-0.428;2024-02-21T04:41:10;10.80;99.90
20744;DHT22;56303;52.160;-0.428;2024-02-21T04:43:37;10.80;99.90
20744;DHT22;56303;52.160;-0.428;2024-02-21T04:46:04;10.70;99.90
20744;DHT22;56303;52.160;-0.428;2024-02-21T04:48:31;10.80;99.90
20744;DHT22;56303;52.160;-0.428;2024-02-21T04:50:58;10.80;99.90
20744;DHT22;56303;52.160;-0.428;2024-02-21T04:53:25;10.90;99.90
20744;DHT22;56303;52.160;-0.428;2024-02-21T04:55:52;11.00;99.90
20744;DHT22;56303;52.160;-0.428;2024-02-21T04:58:19;10.90;99.90
20744;DHT22;56303;52.160;-0.428;2024-02-21T05:00:45;11.00;99.90
20744;DHT22;56303;52.160;-0.428;2024-02-21T05:03:12;10.90;99.90
20744;DHT22;56303;52.160;-0.428;2024-02-21T05:05:39;11.00;99.90
20744;DHT22;56303;52.160;-0.428;2024-02-21T05:08:06;10.80;99.90
20744;DHT22;56303;52.160;-0.428;2024-02-21T05:10:33;11.00;99.90
20744;DHT22;56303;52.160;-0.428;2024-02-21T05:13:00;11.10;99.90
20744;DHT22;56303;52.160;-0.428;2024-02-21T05:15:27;11.00;99.90
20744;DHT22;56303;52.160;-0.428;2024-02-21T05:17:54;11.00;99.90
20744;DHT22;56303;52.160;-0.428;2024-02-21T05:20:21;11.00;99.90
20744;DHT22;56303;52.160;-0.428;2024-02-21T05:22:48;11.00;99.90
20744;DHT22;56303;52.160;-0.428;2024-02-21T05:25:15;10.80;99.90
20744;DHT22;56303;52.160;-0.428;2024-02-21T05:27:42;10.90;99.90
20744;DHT22;56303;52.160;-0.428;2024-02-21T05:30:10;10.80;99.90
20744;DHT22;56303;52.160;-0.428;2024-02-21T05:32:37;10.90;99.90
20744;DHT22;56303;52.160;-0.428;2024-02-21T05:35:04;10.90;99.90
20744;DHT22;56303;52.160;-0.428;2024-02-21T05:37:31;10.60;99.90
20744;DHT22;56303;52.160;-0.428;2024-02-21T05:39:58;10.80;99.90
20744;DHT22;56303;52.160;-0.428;2024-02-21T05:42:25;10.60;99.90
20744;DHT22;56303;52.160;-0.428;2024-02-21T05:44:52;10.60;99.90
20744;DHT22;56303;52.160;-0.428;2024-02-21T05:47:18;10.50;99.90
20744;DHT22;56303;52.160;-0.428;2024-02-21T05:49:47;10.30;99.90
20744;DHT22;56303;52.160;-0.428;2024-02-21T05:52:15;10.40;99.90
20744;DHT22;56303;52.160;-0.428;2024-02-21T05:54:42;10.60;99.90
20744;DHT22;56303;52.160;-0.428;2024-02-21T05:57:09;10.40;99.90
20744;DHT22;56303;52.160;-0.428;2024-02-21T05:59:38;10.70;99.90
20744;DHT22;56303;52.160;-0.428;2024-02-21T06:02:07;10.70;99.90
20744;DHT22;56303;52.160;-0.428;2024-02-21T06:04:34;10.60;99.90
20744;DHT22;56303;52.160;-0.428;2024-02-21T06:07:01;10.20;99.90
20744;DHT22;56303;52.160;-0.428;2024-02-21T06:09:28;10.40;99.90
20744;DHT22;56303;52.160;-0.428;2024-02-21T06:11:55;10.40;99.90
20744;DHT22;56303;52.160;-0.428;2024-02-21T06:14:22;10.60;99.90
20744;DHT22;56303;52.160;-0.428;2024-02-21T06:16:49;10.40;99.90
20744;DHT22;56303;52.160;-0.428;2024-02-21T06:19:16;10.40;99.90
20744;DHT22;56303;52.160;-0.428;2024-02-21T06:21:44;10.40;99.90
20744;DHT22;56303;52.160;-0.428;2024-02-21T06:24:11;10.40;99.90
20744;DHT22;56303;52.160;-0.428;2024-02-21T06:26:40;10.30;99.90
20744;DHT22;56303;52.160;-0.428;2024-02-21T06:29:07;10.30;99.90
20744;DHT22;56303;52.160;-0.428;2024-02-21T06:31:35;10.10;99.90
20744;DHT22;56303;52.160;-0.428;2024-02-21T06:34:02;10.10;99.90
20744;DHT22;56303;52.160;-0.428;2024-02-21T06:36:29;10.40;99.90
20744;DHT22;56303;52.160;-0.428;2024-02-21T06:38:57;10.50;99.90
20744;DHT22;56303;52.160;-0.428;2024-02-21T06:41:24;10.50;99.90
20744;DHT22;56303;52.160;-0.428;2024-02-21T06:43:51;10.80;99.90
20744;DHT22;56303;52.160;-0.428;2024-02-21T06:46:28;10.40;99.90
20744;DHT22;56303;52.160;-0.428;2024-02-21T06:48:56;10.50;99.90
20744;DHT22;56303;52.160;-0.428;2024-02-21T06:51:24;11.90;99.90
20744;DHT22;56303;52.160;-0.428;2024-02-21T06:53:54;10.50;99.90
20744;DHT22;56303;52.160;-0.428;2024-02-21T06:56:24;10.30;99.90
20744;DHT22;56303;52.160;-0.428;2024-02-21T06:58:55;10.30;99.90
20744;DHT22;56303;52.160;-0.428;2024-02-21T07:01:26;10.40;99.90
20744;DHT22;56303;52.160;-0.428;2024-02-21T07:03:53;10.10;99.90
20744;DHT22;56303;52.160;-0.428;2024-02-21T07:06:20;10.30;99.90
20744;DHT22;56303;52.160;-0.428;2024-02-21T07:08:47;10.40;99.90
20744;DHT22;56303;52.160;-0.428;2024-02-21T07:11:14;10.10;99.90
20744;DHT22;56303;52.160;-0.428;2024-02-21T07:13:41;10.30;99.90
20744;DHT22;56303;52.160;-0.428;2024-02-21T07:16:08;10.20;99.90
20744;DHT22;56303;52.160;-0.428;2024-02-21T07:18:35;10.40;99.90
20744;DHT22;56303;52.160;-0.428;2024-02-21T07:21:01;10.30;99.90
20744;DHT22;56303;52.160;-0.428;2024-02-21T07:23:28;10.20;99.90
20744;DHT22;56303;52.160;-0.428;2024-02-21T07:25:55;10.10;99.90
20744;DHT22;56303;52.160;-0.428;2024-02-21T07:28:22;10.10;99.90
20744;DHT22;56303;52.160;-0.428;2024-02-21T07:30:49;10.20;99.90
20744;DHT22;56303;52.160;-0.428;2024-02-21T07:33:16;10.30;99.90
20744;DHT22;56303;52.160;-0.428;2024-02-21T07:35:43;10.20;99.90
20744;DHT22;56303;52.160;-0.428;2024-02-21T07:38:11;10.30;99.90
20744;DHT22;56303;52.160;-0.428;2024-02-21T07:40:39;10.30;99.90
20744;DHT22;56303;52.160;-0.428;2024-02-21T07:43:07;10.20;99.90
20744;DHT22;56303;52.160;-0.428;2024-02-21T07:45:33;10.20;99.90
20744;DHT22;56303;52.160;-0.428;2024-02-21T07:48:00;10.30;99.90
20744;DHT22;56303;52.160;-0.428;2024-02-21T07:50:27;10.20;99.90
20744;DHT22;56303;52.160;-0.428;2024-02-21T07:52:54;10.10;99.90
20744;DHT22;56303;52.160;-0.428;2024-02-21T07:55:21;10.00;99.90
20744;DHT22;56303;52.160;-0.428;2024-02-21T07:57:48;10.00;99.90
20744;DHT22;56303;52.160;-0.428;2024-02-21T08:00:16;10.00;99.90
20744;DHT22;56303;52.160;-0.428;2024-02-21T08:02:48;10.00;99.90
20744;DHT22;56303;52.160;-0.428;2024-02-21T08:05:15;10.10;99.90
20744;DHT22;56303;52.160;-0.428;2024-02-21T08:07:42;10.10;99.90
20744;DHT22;56303;52.160;-0.428;2024-02-21T08:10:09;10.10;99.90
20744;DHT22;56303;52.160;-0.428;2024-02-21T08:12:36;10.10;99.90
20744;DHT22;56303;52.160;-0.428;2024-02-21T08:15:03;10.30;99.90
20744;DHT22;56303;52.160;-0.428;2024-02-21T08:17:31;10.30;99.90
20744;DHT22;56303;52.160;-0.428;2024-02-21T08:19:58;10.10;99.90
20744;DHT22;56303;52.160;-0.428;2024-02-21T08:22:25;10.20;99.90
20744;DHT22;56303;52.160;-0.428;2024-02-21T08:24:53;10.30;99.90
20744;DHT22;56303;52.160;-0.428;2024-02-21T08:27:20;10.30;99.90
20744;DHT22;56303;52.160;-0.428;2024-02-21T08:29:47;10.20;99.90
20744;DHT22;56303;52.160;-0.428;2024-02-21T08:32:14;10.20;99.90
20744;DHT22;56303;52.160;-0.428;2024-02-21T08:34:41;10.30;99.90
20744;DHT22;56303;52.160;-0.428;2024-02-21T08:37:08;10.50;99.90
20744;DHT22;56303;52.160;-0.428;2024-02-21T08:39:37;10.40;99.90
20744;DHT22;56303;52.160;-0.428;2024-02-21T08:42:05;10.30;99.90
20744;DHT22;56303;52.160;-0.428;2024-02-21T08:44:32;10.50;99.90
20744;DHT22;56303;52.160;-0.428;2024-02-21T08:46:59;10.30;99.90
20744;DHT22;56303;52.160;-0.428;2024-02-21T08:49:26;10.40;99.90
20744;DHT22;56303;52.160;-0.428;2024-02-21T08:52:00;10.60;99.90
20744;DHT22;56303;52.160;-0.428;2024-02-21T08:54:28;10.60;99.90
20744;DHT22;56303;52.160;-0.428;2024-02-21T08:56:55;10.70;99.90
20744;DHT22;56303;52.160;-0.428;2024-02-21T08:59:23;10.60;99.90
20744;DHT22;56303;52.160;-0.428;2024-02-21T09:01:51;10.50;99.90
20744;DHT22;56303;52.160;-0.428;2024-02-21T09:04:19;10.50;99.90
20744;DHT22;56303;52.160;-0.428;2024-02-21T09:06:46;10.40;99.90
20744;DHT22;56303;52.160;-0.428;2024-02-21T09:09:13;10.60;99.90
20744;DHT22;56303;52.160;-0.428;2024-02-21T09:11:40;10.70;99.90
20744;DHT22;56303;52.160;-0.428;2024-02-21T09:14:07;10.60;99.90
20744;DHT22;56303;52.160;-0.428;2024-02-21T09:16:34;10.70;99.90
20744;DHT22;56303;52.160;-0.428;2024-02-21T09:19:01;10.50;99.90
20744;DHT22;56303;52.160;-0.428;2024-02-21T09:21:28;10.40;99.90
20744;DHT22;56303;52.160;-0.428;2024-02-21T09:23:55;10.60;99.90
20744;DHT22;56303;52.160;-0.428;2024-02-21T09:26:26;10.60;99.90
20744;DHT22;56303;52.160;-0.428;2024-02-21T09:28:53;10.30;99.90
20744;DHT22;56303;52.160;-0.428;2024-02-21T09:31:20;10.20;99.90
20744;DHT22;56303;52.160;-0.428;2024-02-21T09:33:47;10.20;99.90
20744;DHT22;56303;52.160;-0.428;2024-02-21T09:36:14;10.20;99.90
20744;DHT22;56303;52.160;-0.428;2024-02-21T09:38:41;10.20;99.90
20744;DHT22;56303;52.160;-0.428;2024-02-21T09:41:19;10.20;99.90
20744;DHT22;56303;52.160;-0.428;2024-02-21T09:43:53;10.20;99.90
20744;DHT22;56303;52.160;-0.428;2024-02-21T09:51:38;10.20;99.90
20744;DHT22;56303;52.160;-0.428;2024-02-21T09:54:08;10.20;99.90
20744;DHT22;56303;52.160;-0.428;2024-02-21T09:56:45;10.30;99.90
20744;DHT22;56303;52.160;-0.428;2024-02-21T09:59:16;10.30;99.90
20744;DHT22;56303;52.160;-0.428;2024-02-21T10:01:44;10.20;99.90
20744;DHT22;56303;52.160;-0.428;2024-02-21T10:04:11;10.20;99.90
20744;DHT22;56303;52.160;-0.428;2024-02-21T10:06:38;10.30;99.90
20744;DHT22;56303;52.160;-0.428;2024-02-21T10:09:06;10.30;99.90
20744;DHT22;56303;52.160;-0.428;2024-02-21T10:11:33;10.20;99.90
20744;DHT22;56303;52.160;-0.428;2024-02-21T10:14:05;10.00;99.90
20744;DHT22;56303;52.160;-0.428;2024-02-21T10:16:32;10.00;99.90
20744;DHT22;56303;52.160;-0.428;2024-02-21T10:19:00;10.10;99.90
20744;DHT22;56303;52.160;-0.428;2024-02-21T10:21:28;10.10;99.90
20744;DHT22;56303;52.160;-0.428;2024-02-21T10:23:58;10.10;99.90
20744;DHT22;56303;52.160;-0.428;2024-02-21T10:26:28;10.20;99.90
20744;DHT22;56303;52.160;-0.428;2024-02-21T10:28:57;10.30;99.90
20744;DHT22;56303;52.160;-0.428;2024-02-21T10:31:26;9.00;99.90
20744;DHT22;56303;52.160;-0.428;2024-02-21T10:33:55;10.30;99.90
20744;DHT22;56303;52.160;-0.428;2024-02-21T10:36:23;10.30;99.90
20744;DHT22;56303;52.160;-0.428;2024-02-21T10:38:54;10.30;99.90
20744;DHT22;56303;52.160;-0.428;2024-02-21T10:41:23;10.30;99.90
20744;DHT22;56303;52.160;-0.428;2024-02-21T10:43:52;10.30;99.90
20744;DHT22;56303;52.160;-0.428;2024-02-21T10:46:22;10.40;99.90
20744;DHT22;56303;52.160;-0.428;2024-02-21T10:49:03;10.20;99.90
20744;DHT22;56303;52.160;-0.428;2024-02-21T10:51:34;10.30;99.90
20744;DHT22;56303;52.160;-0.428;2024-02-21T10:56:50;10.50;99.90
20744;DHT22;56303;52.160;-0.428;2024-02-21T10:59:18;10.40;99.90
20744;DHT22;56303;52.160;-0.428;2024-02-21T11:01:46;10.40;99.90
20744;DHT22;56303;52.160;-0.428;2024-02-21T11:04:14;10.30;99.90
20744;DHT22;56303;52.160;-0.428;2024-02-21T11:06:42;10.40;99.90
20744;DHT22;56303;52.160;-0.428;2024-02-21T11:09:10;10.30;99.90
20744;DHT22;56303;52.160;-0.428;2024-02-21T11:11:40;10.30;99.90
20744;DHT22;56303;52.160;-0.428;2024-02-21T11:14:09;10.50;99.90
20744;DHT22;56303;52.160;-0.428;2024-02-21T11:16:41;10.30;99.90
20744;DHT22;56303;52.160;-0.428;2024-02-21T11:19:22;10.40;99.90
20744;DHT22;56303;52.160;-0.428;2024-02-21T11:21:51;10.90;99.90
20744;DHT22;56303;52.160;-0.428;2024-02-21T11:24:29;10.40;99.90
20744;DHT22;56303;52.160;-0.428;2024-02-21T11:27:11;11.80;99.90
20744;DHT22;56303;52.160;-0.428;2024-02-21T11:30:04;10.40;99.90
20744;DHT22;56303;52.160;-0.428;2024-02-21T11:32:32;10.40;99.90
20744;DHT22;56303;52.160;-0.428;2024-02-21T11:35:00;10.40;99.90
20744;DHT22;56303;52.160;-0.428;2024-02-21T11:37:35;10.40;99.90
20744;DHT22;56303;52.160;-0.428;2024-02-21T11:40:06;10.40;99.90
20744;DHT22;56303;52.160;-0.428;2024-02-21T11:42:38;10.60;99.90
20744;DHT22;56303;52.160;-0.428;2024-02-21T11:45:06;10.60;99.90
20744;DHT22;56303;52.160;-0.428;2024-02-21T11:47:33;10.50;99.90
20744;DHT22;56303;52.160;-0.428;2024-02-21T11:50:00;10.60;99.90
20744;DHT22;56303;52.160;-0.428;2024-02-21T11:52:28;10.60;99.90
20744;DHT22;56303;52.160;-0.428;2024-02-21T11:54:55;10.80;99.90
20744;DHT22;56303;52.160;-0.428;2024-02-21T11:57:30;10.70;99.90
20744;DHT22;56303;52.160;-0.428;2024-02-21T11:59:57;10.70;99.90
20744;DHT22;56303;52.160;-0.428;2024-02-21T12:02:28;10.80;99.90
20744;DHT22;56303;52.160;-0.428;2024-02-21T12:04:55;11.00;99.90
20744;DHT22;56303;52.160;-0.428;2024-02-21T12:07:22;11.00;99.90
20744;DHT22;56303;52.160;-0.428;2024-02-21T12:09:52;10.90;99.90
20744;DHT22;56303;52.160;-0.428;2024-02-21T12:12:22;10.90;99.90
20744;DHT22;56303;52.160;-0.428;2024-02-21T12:14:55;10.90;99.90
20744;DHT22;56303;52.160;-0.428;2024-02-21T12:17:25;10.90;99.90
20744;DHT22;56303;52.160;-0.428;2024-02-21T12:19:52;10.90;99.90
20744;DHT22;56303;52.160;-0.428;2024-02-21T12:22:19;11.00;99.90
20744;DHT22;56303;52.160;-0.428;2024-02-21T12:24:46;11.00;99.90
20744;DHT22;56303;52.160;-0.428;2024-02-21T12:27:15;11.10;99.90
20744;DHT22;56303;52.160;-0.428;2024-02-21T12:29:42;10.90;99.90
20744;DHT22;56303;52.160;-0.428;2024-02-21T12:32:09;10.90;99.90
20744;DHT22;56303;52.160;-0.428;2024-02-21T12:34:36;11.00;99.90
20744;DHT22;56303;52.160;-0.428;2024-02-21T12:37:18;11.20;99.90
20744;DHT22;56303;52.160;-0.428;2024-02-21T12:39:47;11.10;99.90
20744;DHT22;56303;52.160;-0.428;2024-02-21T12:42:15;11.30;99.90
20744;DHT22;56303;52.160;-0.428;2024-02-21T12:44:44;11.10;99.90
20744;DHT22;56303;52.160;-0.428;2024-02-21T12:47:12;11.00;99.90
20744;DHT22;56303;52.160;-0.428;2024-02-21T12:49:39;11.10;99.90
20744;DHT22;56303;52.160;-0.428;2024-02-21T12:52:11;11.10;99.90
20744;DHT22;56303;52.160;-0.428;2024-02-21T12:54:40;11.20;99.90
20744;DHT22;56303;52.160;-0.428;2024-02-21T12:57:06;11.40;99.90
20744;DHT22;56303;52.160;-0.428;2024-02-21T12:59:33;11.50;99.90
20744;DHT22;56303;52.160;-0.428;2024-02-21T13:02:00;11.50;99.90
20744;DHT22;56303;52.160;-0.428;2024-02-21T13:04:27;11.40;99.90
20744;DHT22;56303;52.160;-0.428;2024-02-21T13:06:54;11.50;99.90
20744;DHT22;56303;52.160;-0.428;2024-02-21T13:09:22;11.50;99.90
20744;DHT22;56303;52.160;-0.428;2024-02-21T13:11:49;11.60;99.90
20744;DHT22;56303;52.160;-0.428;2024-02-21T13:14:18;11.70;99.90
20744;DHT22;56303;52.160;-0.428;2024-02-21T13:16:45;11.70;99.90
20744;DHT22;56303;52.160;-0.428;2024-02-21T13:19:12;11.60;99.90
20744;DHT22;56303;52.160;-0.428;2024-02-21T13:21:40;11.60;99.90
20744;DHT22;56303;52.160;-0.428;2024-02-21T13:24:07;11.60;99.90
20744;DHT22;56303;52.160;-0.428;2024-02-21T13:26:34;11.60;99.90
20744;DHT22;56303;52.160;-0.428;2024-02-21T13:29:01;11.60;99.90
20744;DHT22;56303;52.160;-0.428;2024-02-21T13:31:30;11.70;99.90
20744;DHT22;56303;52.160;-0.428;2024-02-21T13:33:58;11.40;99.90
20744;DHT22;56303;52.160;-0.428;2024-02-21T13:36:27;11.60;99.90
20744;DHT22;56303;52.160;-0.428;2024-02-21T13:38:54;11.60;99.90
20744;DHT22;56303;52.160;-0.428;2024-02-21T13:41:21;11.60;99.90
20744;DHT22;56303;52.160;-0.428;2024-02-21T13:43:50;11.60;99.90
20744;DHT22;56303;52.160;-0.428;2024-02-21T13:46:18;10.50;99.90
20744;DHT22;56303;52.160;-0.428;2024-02-21T13:48:47;11.70;99.90
20744;DHT22;56303;52.160;-0.428;2024-02-21T13:51:14;11.80;99.90
20744;DHT22;56303;52.160;-0.428;2024-02-21T13:53:44;11.60;99.90
20744;DHT22;56303;52.160;-0.428;2024-02-21T13:56:10;11.70;99.90
20744;DHT22;56303;52.160;-0.428;2024-02-21T13:58:38;11.80;99.90
20744;DHT22;56303;52.160;-0.428;2024-02-21T14:01:05;11.90;99.90
20744;DHT22;56303;52.160;-0.428;2024-02-21T14:03:32;11.90;99.90
20744;DHT22;56303;52.160;-0.428;2024-02-21T14:05:59;12.00;99.90
20744;DHT22;56303;52.160;-0.428;2024-02-21T14:08:27;11.90;99.90
20744;DHT22;56303;52.160;-0.428;2024-02-21T14:10:54;12.10;99.90
20744;DHT22;56303;52.160;-0.428;2024-02-21T14:13:23;12.30;99.90
20744;DHT22;56303;52.160;-0.428;2024-02-21T14:15:50;12.40;99.90
20744;DHT22;56303;52.160;-0.428;2024-02-21T14:18:17;12.30;99.90
20744;DHT22;56303;52.160;-0.428;2024-02-21T14:20:45;12.10;99.90
20744;DHT22;56303;52.160;-0.428;2024-02-21T14:23:14;12.20;99.90
20744;DHT22;56303;52.160;-0.428;2024-02-21T14:25:41;12.20;99.90
20744;DHT22;56303;52.160;-0.428;2024-02-21T14:28:09;12.10;99.90
20744;DHT22;56303;52.160;-0.428;2024-02-21T14:30:36;12.10;99.90
20744;DHT22;56303;52.160;-0.428;2024-02-21T14:33:03;12.30;99.90
20744;DHT22;56303;52.160;-0.428;2024-02-21T14:35:31;12.20;99.90
20744;DHT22;56303;52.160;-0.428;2024-02-21T14:37:58;12.30;99.90
20744;DHT22;56303;52.160;-0.428;2024-02-21T14:40:28;12.20;99.90
20744;DHT22;56303;52.160;-0.428;2024-02-21T14:42:57;12.40;99.90
20744;DHT22;56303;52.160;-0.428;2024-02-21T14:45:24;12.20;99.90
20744;DHT22;56303;52.160;-0.428;2024-02-21T14:47:52;12.20;99.90
20744;DHT22;56303;52.160;-0.428;2024-02-21T14:50:20;12.30;99.90
20744;DHT22;56303;52.160;-0.428;2024-02-21T14:52:47;12.40;99.90
20744;DHT22;56303;52.160;-0.428;2024-02-21T14:55:15;12.40;99.90
20744;DHT22;56303;52.160;-0.428;2024-02-21T14:57:43;12.40;99.90
20744;DHT22;56303;52.160;-0.428;2024-02-21T15:00:12;12.50;99.90
20744;DHT22;56303;52.160;-0.428;2024-02-21T15:02:40;12.50;99.90
20744;DHT22;56303;52.160;-0.428;2024-02-21T15:05:08;12.50;99.90
20744;DHT22;56303;52.160;-0.428;2024-02-21T15:07:35;12.40;99.90
20744;DHT22;56303;52.160;-0.428;2024-02-21T15:10:02;12.50;99.90
20744;DHT22;56303;52.160;-0.428;2024-02-21T15:12:29;12.60;99.90
20744;DHT22;56303;52.160;-0.428;2024-02-21T15:14:58;12.50;99.90
20744;DHT22;56303;52.160;-0.428;2024-02-21T15:17:26;12.30;99.90
20744;DHT22;56303;52.160;-0.428;2024-02-21T15:19:53;12.50;99.90
20744;DHT22;56303;52.160;-0.428;2024-02-21T15:22:22;12.60;99.90
20744;DHT22;56303;52.160;-0.428;2024-02-21T15:24:50;12.70;99.90
20744;DHT22;56303;52.160;-0.428;2024-02-21T15:27:18;12.70;99.90